Terminal Aerodrome Forecast
Issued by NWS Charleston, WV

Current Version | Previous Version | Graphics & Text | Print | Product List | Glossary On
Versions: 1 2 3 4 5 6 7 8 9 10 11 12 13 14 15 16 17 18 19 20 21 22 23 24 25
000
FTUS41 KRLX 201500 AAB
TAFEKN
TAF AMD
KEKN 201523Z 2015/2112 00000KT P6SM SCT035 BKN050
     FM201900 24005KT P6SM BKN040
     FM210300 00000KT 2SM BR BKN040
     FM210500 00000KT 1/4SM FG VV001=

USA.gov is the U.S. government's official web portal to all federal, state and local government web resources and services.